Accueil
METAR-TAF:

METAR-TAF

Aéroports :

Aéroport de Dole-Jura

Dole, France

latitude: 47-02-34N, longitude: 005-26-06E, altitude: 196 m

Observation

Le bulletin a été fait il y a 22 minutes, à 22:30 UTC
Vent 2 kt de direction variable
Température 0°C
Humidité 100%
Pression 1020 hPa
Visibilité: 0300 m
brouillard

METAR: LFGJ 242230Z AUTO VRB02KT 0350 0300 R05/0350N FG VV/// 00/M00 Q1020

Heure: 23:52 (22:52 UTC)

Prévision

Le bulletin a été fait il y a 8 heures et 52 minutes, à 14:00 UTC
Prévision valable du 24 à 15 UTC au 24 à 24 UTC
Vent 3 kt de direction variable
Visibilité: 0400 m
brouillard
Temporairement
du 24 à 15 UTC au 24 à 17 UTC
Visibilité: 4000 m
Ciel couvert à une hauteur de 300 ft
brume
Probabilité 40%
du 24 à 18 UTC au 24 à 24 UTC
Visibilité: 0200 m
brouillard givrant

TAF: LFGJ 241400Z 2415/2424 VRB03KT 0400 FG VV/// TEMPO 2415/2417 4000 BR OVC003 PROB40 2418/2424 0200 FZFG

Observations et prévisions météorologiques de plus de 4000 aéroports (messages METAR et TAF).

Les stations disponibles sont représentées par des disques jaunes et rouges sur la carte.

Passer la souris dessus pour voir le nom de la station.

Cliquer dessus pour voir les observations et prévisions météorologiques.

Pour changer de carte: cliquez sur les boutons verts avec une croix noire pour zoomer, sur le bouton vert avec un tiret pour effectuer un zoom arrière, ou sur les flèches vertes pour les cartes adjacentes.


METAR-TAF: